Time;durP1;ratioP1;P1;durP2;ratioP2;P2;SDS_P1;SDS_P2;PMS_P1;PMS_P2;Temp;Humidity;BMP_temperature;BMP_pressure;BME280_temperature;BME280_humidity;BME280_pressure;Samples;Min_cycle;Max_cycle;Signal;HPM_P1;HPM_P2
2022/05/29 00:00:07;;;;;;;9.13;5.75;;;;;;;9.49;85.51;99730.97;1705254;84;25813;-68
2022/05/29 00:02:34;;;;;;;9.80;5.12;;;;;;;9.49;85.59;99734.23;1682126;84;25742;-67
2022/05/29 00:05:00;;;;;;;7.47;5.10;;;;;;;9.48;85.50;99733.45;1705606;84;35011;-67
2022/05/29 00:07:27;;;;;;;12.28;5.80;;;;;;;9.48;85.45;99733.45;1692650;84;25412;-67
2022/05/29 00:09:53;;;;;;;10.85;6.12;;;;;;;9.49;85.48;99735.02;1692975;84;27343;-68
2022/05/29 00:12:23;;;;;;;8.85;5.80;;;;;;;9.50;85.48;99727.17;1654731;86;25483;-67
2022/05/29 00:14:51;;;;;;;10.68;5.65;;;;;;;9.51;85.54;99734.14;1683870;85;25655;-68
2022/05/29 00:17:19;;;;;;;7.30;4.87;;;;;;;9.52;85.58;99729.00;1703505;83;25592;-67
2022/05/29 00:19:46;;;;;;;12.05;5.87;;;;;;;9.51;85.70;99731.45;1703626;84;25724;-68
2022/05/29 00:22:19;;;;;;;8.68;5.87;;;;;;;9.52;85.62;99737.66;1654643;86;27343;-68
2022/05/29 00:24:48;;;;;;;10.32;5.55;;;;;;;9.52;85.61;99741.71;1684051;85;25643;-68
2022/05/29 00:27:16;;;;;;;10.05;5.75;;;;;;;9.53;85.92;99735.19;1707028;83;25698;-68
2022/05/29 00:29:44;;;;;;;10.13;5.72;;;;;;;9.54;85.78;99730.82;1706761;84;26385;-66
2022/05/29 00:32:11;;;;;;;10.68;5.55;;;;;;;9.54;85.71;99734.08;1706813;83;25638;-67
2022/05/29 00:34:37;;;;;;;10.58;6.45;;;;;;;9.53;85.78;99737.88;1713371;83;27381;-68
2022/05/29 00:37:06;;;;;;;7.95;5.83;;;;;;;9.51;85.70;99736.84;1703119;84;27209;-67
2022/05/29 00:39:34;;;;;;;9.85;5.45;;;;;;;9.51;85.73;99738.20;1655140;86;25680;-68
2022/05/29 00:42:06;;;;;;;10.30;6.15;;;;;;;9.49;85.91;99735.02;1683981;85;25758;-68
2022/05/29 00:44:36;;;;;;;9.40;5.92;;;;;;;9.49;85.94;99734.23;1703538;83;25579;-67
2022/05/29 00:47:13;;;;;;;10.20;6.20;;;;;;;9.49;86.24;99740.98;1655093;86;28061;-67
2022/05/29 00:49:42;;;;;;;12.47;6.28;;;;;;;9.47;86.20;99737.25;1684133;85;25666;-67
2022/05/29 00:52:16;;;;;;;10.32;5.90;;;;;;;9.48;86.43;99740.73;1654782;86;25816;-67
2022/05/29 00:54:59;;;;;;;9.58;6.03;;;;;;;9.48;86.52;99738.84;1684111;85;25627;-67
2022/05/29 00:57:35;;;;;;;8.43;5.70;;;;;;;9.48;86.55;99736.69;1706980;83;25597;-67
2022/05/29 01:00:09;;;;;;;8.23;5.62;;;;;;;9.50;86.70;99739.86;1713018;83;27452;-67
2022/05/29 01:02:35;;;;;;;8.95;5.45;;;;;;;9.47;86.53;99735.11;1703544;84;25649;-67
2022/05/29 01:05:05;;;;;;;8.50;5.58;;;;;;;9.47;86.51;99735.89;1654978;86;25630;-66
2022/05/29 01:07:32;;;;;;;8.08;6.05;;;;;;;9.48;86.57;99736.69;1683960;85;25550;-66
2022/05/29 01:10:01;;;;;;;7.55;5.47;;;;;;;9.46;86.70;99733.51;1655010;86;25717;-66
2022/05/29 01:12:53;;;;;;;8.73;5.72;;;;;;;9.47;86.73;99737.81;1684108;85;27355;-67
2022/05/29 01:15:47;;;;;;;10.35;6.12;;;;;;;9.45;86.91;99734.07;1654930;86;25713;-67
2022/05/29 01:18:28;;;;;;;9.18;5.97;;;;;;;9.44;87.03;99732.47;1683189;85;25672;-66
2022/05/29 01:21:22;;;;;;;13.75;6.62;;;;;;;9.46;86.96;99736.20;1703944;83;25632;-67
2022/05/29 01:24:32;;;;;;;11.48;6.05;;;;;;;9.46;86.98;99735.64;1707203;83;25627;-68
2022/05/29 01:27:21;;;;;;;10.95;5.97;;;;;;;9.47;86.97;99734.55;1707187;83;27351;-66
2022/05/29 01:29:56;;;;;;;9.50;6.00;;;;;;;9.47;86.84;99738.59;1707151;83;25596;-66
2022/05/29 01:32:39;;;;;;;8.30;5.80;;;;;;;9.50;86.99;99734.45;1712791;83;25474;-67
2022/05/29 01:35:35;;;;;;;9.93;5.50;;;;;;;9.49;86.79;99740.98;1703872;84;26314;-67
2022/05/29 01:38:24;;;;;;;11.57;5.00;;;;;;;9.52;86.76;99739.01;1649824;86;25417;-66
2022/05/29 01:40:58;;;;;;;8.63;4.95;;;;;;;9.53;86.91;99739.23;1703356;84;28049;-67
2022/05/29 01:43:44;;;;;;;6.90;4.37;;;;;;;9.54;86.84;99740.83;1707086;83;25575;-67
2022/05/29 01:46:25;;;;;;;6.72;4.60;;;;;;;9.53;86.67;99738.70;1707137;83;25588;-67
2022/05/29 01:49:27;;;;;;;7.80;4.78;;;;;;;9.56;86.67;99743.22;1707139;83;25761;-67
2022/05/29 01:52:05;;;;;;;10.48;5.12;;;;;;;9.53;86.42;99738.70;1686725;84;25651;-69
2022/05/29 01:54:48;;;;;;;10.38;4.65;;;;;;;9.53;86.38;99744.09;1706622;83;28370;-68
2022/05/29 01:57:26;;;;;;;9.10;4.10;;;;;;;9.53;86.34;99744.63;1704329;84;25387;-67
2022/05/29 02:00:17;;;;;;;6.72;3.95;;;;;;;9.52;86.29;99741.14;1706622;83;25408;-69
2022/05/29 02:02:52;;;;;;;5.20;3.42;;;;;;;9.53;86.17;99734.64;1707106;83;26499;-68
2022/05/29 02:05:23;;;;;;;6.65;3.58;;;;;;;9.51;86.11;99736.84;1706590;83;25486;-67
2022/05/29 02:07:55;;;;;;;4.60;3.10;;;;;;;9.52;86.06;99736.31;1707163;83;28016;-67
2022/05/29 02:10:35;;;;;;;7.87;3.22;;;;;;;9.50;85.90;99729.88;1706971;83;25402;-67
2022/05/29 02:13:35;;;;;;;8.90;3.37;;;;;;;9.51;85.90;99732.01;1707261;83;25588;-66
2022/05/29 02:16:09;;;;;;;6.10;3.20;;;;;;;9.52;85.85;99738.45;1707071;83;25844;-66
2022/05/29 02:18:55;;;;;;;4.70;3.20;;;;;;;9.52;85.86;99734.96;1707169;83;25640;-66
2022/05/29 02:21:41;;;;;;;13.65;3.40;;;;;;;9.53;85.82;99736.00;1707189;83;27429;-66
2022/05/29 02:24:22;;;;;;;10.35;3.33;;;;;;;9.53;85.63;99730.59;1707036;83;25553;-67
2022/05/29 02:27:00;;;;;;;7.22;3.08;;;;;;;9.52;85.59;99730.34;1707089;83;25562;-67
2022/05/29 02:29:28;;;;;;;8.85;3.12;;;;;;;9.52;85.66;99734.39;1707112;83;25617;-67
2022/05/29 02:32:17;;;;;;;7.20;3.60;;;;;;;9.51;85.57;99738.20;1707154;83;25635;-67
2022/05/29 02:35:01;;;;;;;4.40;2.92;;;;;;;9.50;85.57;99743.38;1707273;84;28003;-68
2022/05/29 02:37:48;;;;;;;7.05;3.40;;;;;;;9.49;85.75;99739.07;1704328;83;25624;-66
2022/05/29 02:40:44;;;;;;;8.33;3.22;;;;;;;9.50;85.78;99741.20;1655257;86;25444;-67
2022/05/29 02:43:48;;;;;;;3.35;2.87;;;;;;;9.51;85.71;99744.16;1626879;86;25713;-67
2022/05/29 02:46:32;;;;;;;7.20;3.22;;;;;;;9.49;85.63;99737.72;1599894;89;25570;-68
2022/05/29 02:49:13;;;;;;;5.35;3.12;;;;;;;9.48;85.67;99740.20;1627152;88;27362;-67
2022/05/29 02:51:53;;;;;;;6.58;3.00;;;;;;;9.48;85.71;99742.89;1599067;89;25630;-67
2022/05/29 02:54:31;;;;;;;4.72;3.42;;;;;;;9.50;85.72;99746.61;1627120;88;25548;-67
2022/05/29 02:57:00;;;;;;;8.03;3.52;;;;;;;9.50;85.72;99742.55;1599972;89;26305;-67
2022/05/29 02:59:36;;;;;;;5.53;2.77;;;;;;;9.51;85.75;99740.89;1627250;88;25750;-67
2022/05/29 03:02:23;;;;;;;8.33;3.83;;;;;;;9.51;85.75;99746.30;1599423;89;26804;-67
2022/05/29 03:04:57;;;;;;;5.87;3.12;;;;;;;9.52;85.86;99750.59;1626848;86;25352;-66
2022/05/29 03:07:47;;;;;;;6.62;3.50;;;;;;;9.53;85.55;99752.73;1599261;89;25801;-67
2022/05/29 03:10:21;;;;;;;7.53;2.98;;;;;;;9.54;85.59;99751.63;1627109;88;25618;-67
2022/05/29 03:13:05;;;;;;;4.50;2.80;;;;;;;9.56;85.57;99750.76;1599791;89;25595;-67
2022/05/29 03:15:42;;;;;;;13.45;3.65;;;;;;;9.58;85.60;99753.93;1626872;88;28321;-67
2022/05/29 03:18:17;;;;;;;7.92;3.10;;;;;;;9.61;85.65;99753.87;1599903;89;25591;-67
2022/05/29 03:20:58;;;;;;;4.60;3.25;;;;;;;9.64;85.89;99758.64;1680163;85;25560;-67
2022/05/29 03:23:48;;;;;;;10.95;3.47;;;;;;;9.65;85.54;99758.33;1655072;86;28269;-67
2022/05/29 03:26:19;;;;;;;5.40;3.15;;;;;;;9.68;85.57;99766.34;1684335;84;25410;-67
2022/05/29 03:29:06;;;;;;;6.87;3.17;;;;;;;9.69;85.35;99764.68;1706934;83;27195;-67
2022/05/29 03:31:35;;;;;;;9.73;3.20;;;;;;;9.71;85.21;99769.77;1713970;83;25445;-67
2022/05/29 03:34:02;;;;;;;7.33;3.12;;;;;;;9.72;85.08;99772.69;1704457;84;25408;-67
2022/05/29 03:36:29;;;;;;;8.75;3.30;;;;;;;9.74;85.22;99769.14;1655570;86;25605;-67
2022/05/29 03:38:56;;;;;;;8.08;3.37;;;;;;;9.76;85.30;99768.83;1684801;85;25572;-68
2022/05/29 03:41:45;;;;;;;8.65;3.12;;;;;;;9.79;85.42;99766.83;1655626;86;27335;-67
2022/05/29 03:44:18;;;;;;;6.30;2.90;;;;;;;9.81;85.14;99765.98;1685039;85;25626;-68
2022/05/29 03:46:45;;;;;;;8.95;2.98;;;;;;;9.84;85.11;99774.77;1655643;86;25641;-68
2022/05/29 03:49:16;;;;;;;5.05;2.92;;;;;;;9.85;85.00;99766.92;1684612;85;25604;-66
2022/05/29 03:51:43;;;;;;;10.13;3.25;;;;;;;9.87;84.99;99776.28;1707557;83;25441;-67
2022/05/29 03:54:10;;;;;;;12.18;3.12;;;;;;;9.89;84.94;99770.03;1713810;83;28045;-67
2022/05/29 03:56:38;;;;;;;8.73;3.45;;;;;;;9.93;85.04;99766.67;1703884;84;25596;-67
2022/05/29 03:59:05;;;;;;;7.28;3.15;;;;;;;9.97;85.15;99773.84;1655337;86;25593;-67
2022/05/29 04:01:32;;;;;;;9.18;3.08;;;;;;;10.01;84.94;99772.64;1684896;85;25834;-68
2022/05/29 04:03:59;;;;;;;5.78;3.20;;;;;;;10.07;84.91;99780.84;1707750;83;25400;-66
2022/05/29 04:06:28;;;;;;;5.65;2.92;;;;;;;10.10;84.74;99783.70;1707819;83;27364;-67
2022/05/29 04:14:37;;;;;;;7.62;2.95;;;;;;;10.18;84.33;99778.06;1713626;83;26370;-68
2022/05/29 04:17:04;;;;;;;7.80;3.65;;;;;;;10.20;84.24;99783.12;1712926;83;25596;-68
2022/05/29 04:19:31;;;;;;;6.33;3.30;;;;;;;10.23;84.38;99783.84;1713633;83;27386;-68
2022/05/29 04:21:58;;;;;;;7.50;3.70;;;;;;;10.24;84.19;99786.23;1703867;84;25597;-69
2022/05/29 04:24:25;;;;;;;8.95;3.77;;;;;;;10.29;84.38;99792.05;1655319;86;25558;-68
2022/05/29 04:26:51;;;;;;;9.50;3.22;;;;;;;10.32;83.98;99792.80;1684439;85;25672;-68
2022/05/29 04:29:20;;;;;;;12.00;4.37;;;;;;;10.32;83.55;99790.09;1655353;86;25412;-68
2022/05/29 04:34:32;;;;;;;7.92;3.47;;;;;;;10.32;83.31;99803.61;1655284;86;25457;-67
2022/05/29 04:36:58;;;;;;;10.08;3.62;;;;;;;10.36;83.68;99803.77;1682516;85;25618;-67
2022/05/29 04:39:26;;;;;;;11.28;3.27;;;;;;;10.40;83.60;99809.58;1652420;86;25674;-67
2022/05/29 04:41:52;;;;;;;9.30;3.52;;;;;;;10.42;83.29;99810.04;1652465;86;25589;-67
2022/05/29 04:44:18;;;;;;;6.97;3.33;;;;;;;10.46;83.43;99803.44;1652450;86;27345;-67
2022/05/29 04:46:44;;;;;;;10.70;3.60;;;;;;;10.46;82.97;99798.81;1652384;86;25686;-67
2022/05/29 04:49:10;;;;;;;8.55;3.60;;;;;;;10.48;83.13;99807.96;1652417;86;25574;-67
2022/05/29 04:51:36;;;;;;;6.53;3.30;;;;;;;10.48;82.88;99808.52;1652343;86;25629;-67
2022/05/29 04:54:03;;;;;;;7.35;4.20;;;;;;;10.50;82.75;99804.94;1652540;86;32918;-68
2022/05/29 04:56:29;;;;;;;8.00;3.62;;;;;;;10.50;82.75;99804.94;1652466;86;27404;-67
2022/05/29 04:58:55;;;;;;;9.45;4.00;;;;;;;10.49;82.91;99816.32;1652367;86;33183;-67
2022/05/29 05:01:21;;;;;;;9.15;3.70;;;;;;;10.45;82.31;99809.41;1652531;86;29616;-69
2022/05/29 05:03:47;;;;;;;9.58;3.75;;;;;;;10.44;82.50;99805.67;1652419;86;35081;-67
2022/05/29 05:06:13;;;;;;;7.80;4.33;;;;;;;10.45;82.57;99816.17;1652473;86;25513;-67
2022/05/29 05:08:40;;;;;;;3.98;3.60;;;;;;;10.48;82.77;99805.82;1652437;86;27429;-67
2022/05/29 05:11:07;;;;;;;7.30;4.05;;;;;;;10.50;82.86;99809.78;1652360;86;25600;-67
2022/05/29 05:13:33;;;;;;;12.47;3.92;;;;;;;10.51;82.52;99799.78;1652377;86;25443;-67
2022/05/29 05:16:05;;;;;;;8.83;4.08;;;;;;;10.53;82.85;99798.33;1652374;86;25639;-67
2022/05/29 05:18:31;;;;;;;6.85;3.83;;;;;;;10.57;82.70;99795.78;1652454;86;25675;-67
2022/05/29 05:20:58;;;;;;;7.25;4.05;;;;;;;10.59;82.60;99800.30;1641333;87;28094;-67
2022/05/29 05:23:27;;;;;;;6.37;4.00;;;;;;;10.64;82.82;99805.54;1652339;86;25633;-67
2022/05/29 05:25:53;;;;;;;12.47;4.43;;;;;;;10.70;82.88;99808.89;1652672;86;25477;-67
2022/05/29 05:28:20;;;;;;;9.15;4.53;;;;;;;10.76;82.47;99819.77;1652385;86;34725;-68
2022/05/29 05:30:47;;;;;;;6.78;4.42;;;;;;;10.75;82.19;99823.03;1652424;86;25451;-68
2022/05/29 05:33:14;;;;;;;6.50;4.53;;;;;;;10.78;82.15;99822.96;1652495;86;28191;-68
2022/05/29 05:35:40;;;;;;;11.00;5.12;;;;;;;10.82;82.08;99825.25;1652356;86;25649;-68
2022/05/29 05:38:08;;;;;;;10.20;5.72;;;;;;;10.87;81.87;99825.64;1674441;83;25568;-67
2022/05/29 05:40:35;;;;;;;10.48;5.40;;;;;;;10.90;81.65;99827.14;1703839;83;26242;-67
2022/05/29 05:43:01;;;;;;;8.65;5.15;;;;;;;10.95;81.56;99819.42;1703889;84;25406;-69
2022/05/29 05:45:27;;;;;;;9.55;4.90;;;;;;;10.98;81.42;99823.63;1703856;84;27426;-68
2022/05/29 05:47:55;;;;;;;11.63;5.17;;;;;;;11.05;81.66;99819.08;1703775;83;33208;-68
2022/05/29 05:50:21;;;;;;;14.03;5.40;;;;;;;11.14;81.71;99819.04;1703898;83;25451;-68
2022/05/29 05:52:47;;;;;;;11.88;5.40;;;;;;;11.20;81.65;99825.84;1703837;83;25638;-68
2022/05/29 05:55:13;;;;;;;10.78;5.58;;;;;;;11.25;81.18;99819.47;1703898;83;32960;-67
2022/05/29 05:57:40;;;;;;;12.65;5.58;;;;;;;11.27;80.85;99826.70;1703824;84;28148;-67
2022/05/29 06:00:12;;;;;;;11.50;5.42;;;;;;;11.28;80.24;99832.36;1703766;84;25423;-69
2022/05/29 06:02:43;;;;;;;8.83;5.25;;;;;;;11.28;80.48;99829.66;1703895;83;25592;-67
2022/05/29 06:05:12;;;;;;;13.38;6.37;;;;;;;11.36;80.85;99831.53;1703813;84;25870;-67
2022/05/29 06:07:39;;;;;;;10.55;6.20;;;;;;;11.44;80.92;99837.48;1704035;83;25644;-68
2022/05/29 06:10:08;;;;;;;10.15;6.20;;;;;;;11.54;81.31;99836.30;1685740;83;27507;-68
2022/05/29 06:12:34;;;;;;;11.35;6.45;;;;;;;11.66;80.62;99843.73;1677399;85;25786;-68
2022/05/29 06:15:01;;;;;;;12.00;6.03;;;;;;;11.69;79.53;99848.50;1677101;85;25777;-68
2022/05/29 06:17:27;;;;;;;9.25;6.42;;;;;;;11.69;79.23;99849.28;1675468;85;25748;-68
2022/05/29 06:19:54;;;;;;;9.00;6.17;;;;;;;11.70;78.46;99856.87;1676748;85;25731;-68
2022/05/29 06:22:21;;;;;;;13.43;5.87;;;;;;;11.68;78.60;99850.96;1655820;86;27419;-68
2022/05/29 06:24:47;;;;;;;15.20;6.80;;;;;;;11.70;78.82;99850.09;1677117;85;25642;-68
2022/05/29 06:27:13;;;;;;;10.85;6.60;;;;;;;11.74;78.56;99853.73;1655876;86;29868;-68
2022/05/29 06:29:39;;;;;;;10.98;7.08;;;;;;;11.73;78.92;99850.23;1675394;85;32850;-68
2022/05/29 06:32:09;;;;;;;10.35;6.45;;;;;;;11.81;79.28;99856.71;1655702;86;25736;-69
2022/05/29 06:34:36;;;;;;;11.40;6.95;;;;;;;11.90;79.26;99850.70;1653594;85;27297;-68
2022/05/29 06:37:06;;;;;;;12.07;7.87;;;;;;;11.96;79.32;99852.11;1655471;86;25699;-68
2022/05/29 06:39:36;;;;;;;13.65;6.97;;;;;;;12.07;78.97;99862.56;1675609;85;25722;-68
2022/05/29 06:42:04;;;;;;;12.45;7.42;;;;;;;12.15;79.06;99867.14;1677363;85;26283;-68
2022/05/29 06:44:31;;;;;;;9.23;7.67;;;;;;;12.27;78.39;99871.84;1677274;85;25751;-68
2022/05/29 06:46:57;;;;;;;13.20;7.33;;;;;;;12.32;78.79;99868.93;1677443;85;27346;-68
2022/05/29 06:49:23;;;;;;;14.13;8.78;;;;;;;12.43;78.90;99877.45;1676821;85;25720;-68
2022/05/29 06:51:49;;;;;;;16.12;8.45;;;;;;;12.55;78.77;99878.89;1677463;85;25472;-68
2022/05/29 06:54:16;;;;;;;12.88;7.97;;;;;;;12.63;78.13;99875.31;1677304;85;25753;-68
2022/05/29 06:56:42;;;;;;;16.02;8.75;;;;;;;12.67;77.62;99878.16;1677429;85;25723;-69
2022/05/29 06:59:09;;;;;;;12.60;8.88;;;;;;;12.71;77.02;99881.20;1677456;85;28091;-69
2022/05/29 07:07:13;;;;;;;10.32;7.30;;;;;;;13.01;76.95;99883.03;1677633;85;26556;-68
2022/05/29 07:09:43;;;;;;;16.17;7.22;;;;;;;13.06;76.17;99882.24;1677548;85;25500;-69
2022/05/29 07:12:31;;;;;;;13.25;7.33;;;;;;;13.13;75.87;99882.23;1677534;85;25955;-68
2022/05/29 07:15:03;;;;;;;9.10;6.42;;;;;;;13.16;75.44;99881.03;1677546;85;25718;-68
2022/05/29 07:17:29;;;;;;;12.03;6.25;;;;;;;13.19;74.51;99890.41;1677523;85;25655;-68
2022/05/29 07:19:56;;;;;;;12.90;6.78;;;;;;;13.15;74.56;99891.65;1677465;85;25590;-68
2022/05/29 07:22:23;;;;;;;12.78;6.53;;;;;;;13.18;73.97;99895.05;1677549;85;25695;-68
2022/05/29 07:24:50;;;;;;;9.73;5.08;;;;;;;13.20;74.04;99896.86;1677508;85;27851;-69
2022/05/29 07:27:17;;;;;;;7.28;5.45;;;;;;;13.27;73.21;99897.10;1677458;85;25677;-68
2022/05/29 07:29:43;;;;;;;13.15;5.92;;;;;;;13.32;74.03;99898.84;1677614;85;25498;-68
2022/05/29 07:32:11;;;;;;;9.38;5.87;;;;;;;13.44;73.37;99900.79;1677556;85;26671;-70
2022/05/29 07:34:43;;;;;;;11.15;5.58;;;;;;;13.55;74.56;99907.92;1677540;85;25587;-68
2022/05/29 07:37:11;;;;;;;9.20;4.65;;;;;;;13.68;73.11;99904.66;1677064;85;27345;-69
2022/05/29 07:39:45;;;;;;;11.33;5.47;;;;;;;13.76;72.10;99906.48;1677349;85;25557;-69
2022/05/29 07:45:03;;;;;;;8.98;5.10;;;;;;;13.88;72.44;99908.41;1685821;84;25641;-67
2022/05/29 07:47:30;;;;;;;11.97;4.20;;;;;;;13.99;72.19;99914.39;1694128;84;25455;-67
2022/05/29 07:49:59;;;;;;;10.90;4.20;;;;;;;14.21;70.82;99906.89;1647221;87;27318;-67
2022/05/29 07:52:26;;;;;;;;;;;;;;;14.55;72.30;99909.64;1679557;85;25405;-67
2022/05/29 07:54:53;;;;;;;10.38;3.85;;;;;;;14.77;71.31;99910.28;1666011;85;25625;-67
2022/05/29 07:57:20;;;;;;;6.85;3.83;;;;;;;14.98;71.18;99912.80;1694018;84;25641;-67
2022/05/29 07:59:46;;;;;;;6.15;3.35;;;;;;;15.13;69.75;99910.67;1694039;84;25485;-67
2022/05/29 08:02:34;;;;;;;7.40;2.98;;;;;;;15.24;69.21;99923.81;1694095;84;27266;-68
2022/05/29 08:05:03;;;;;;;7.83;3.42;;;;;;;15.31;67.41;99931.59;1733154;82;25577;-68
2022/05/29 08:07:30;;;;;;;6.93;3.83;;;;;;;15.22;66.55;99920.08;1684562;85;25582;-66
2022/05/29 08:09:56;;;;;;;14.90;3.70;;;;;;;15.23;67.51;99920.86;1733035;82;25649;-67
2022/05/29 08:12:22;;;;;;;6.10;3.20;;;;;;;15.29;65.50;99929.79;1681184;84;26452;-71
2022/05/29 08:14:49;;;;;;;7.60;3.47;;;;;;;15.22;66.45;99925.52;1730889;82;27433;-71
2022/05/29 08:17:15;;;;;;;6.83;3.33;;;;;;;15.21;65.17;99923.92;1735577;82;25766;-71
2022/05/29 08:19:42;;;;;;;7.40;3.60;;;;;;;15.10;65.49;99935.09;1742853;82;25519;-72
2022/05/29 08:30:43;;;;;;;9.50;3.20;;;;;;;15.59;67.50;99923.13;1839719;76;26998;-71
2022/05/29 08:33:15;;;;;;;7.22;3.02;;;;;;;15.66;65.72;99926.84;1855842;77;25785;-70
2022/05/29 08:35:46;;;;;;;9.40;3.37;;;;;;;15.58;64.93;99931.89;1846243;77;25668;-71
2022/05/29 08:38:15;;;;;;;5.47;2.92;;;;;;;15.56;65.57;99928.73;1848821;77;25731;-70
2022/05/29 08:40:50;;;;;;;5.67;2.97;;;;;;;15.96;65.10;99941.97;1855216;77;25734;-71
2022/05/29 08:43:41;;;;;;;6.03;2.40;;;;;;;15.96;65.10;99941.97;1783227;80;25955;-71
2022/05/29 08:46:24;;;;;;;9.48;2.77;;;;;;;15.91;64.19;99929.97;1779471;80;25668;-71
2022/05/29 08:48:53;;;;;;;9.80;3.60;;;;;;;15.84;63.41;99930.59;1784847;80;25733;-72
2022/05/29 08:51:58;;;;;;;9.28;3.47;;;;;;;16.03;64.89;99930.64;1773927;80;25531;-72
2022/05/29 08:54:30;;;;;;;9.25;2.95;;;;;;;16.47;64.97;99927.52;1785805;80;25535;-71
2022/05/29 08:57:18;;;;;;;6.00;2.83;;;;;;;16.54;62.68;99928.44;1801334;79;28131;-70
2022/05/29 09:00:01;;;;;;;6.50;3.15;;;;;;;16.46;62.61;99930.02;1774659;80;25683;-71
2022/05/29 09:02:56;;;;;;;9.73;3.70;;;;;;;16.45;62.86;99934.70;1791478;79;25720;-71
2022/05/29 09:05:41;;;;;;;11.22;2.98;;;;;;;16.43;62.61;99941.09;1798147;79;25690;-71
2022/05/29 09:08:19;;;;;;;7.95;3.30;;;;;;;16.39;63.02;99932.80;1793682;79;25479;-71
2022/05/29 09:10:50;;;;;;;7.92;2.67;;;;;;;16.92;64.62;99927.47;1812770;79;27493;-71
2022/05/29 09:13:21;;;;;;;8.28;2.67;;;;;;;17.48;63.44;99932.40;1773925;79;25726;-71
2022/05/29 09:15:52;;;;;;;4.60;2.52;;;;;;;17.98;63.04;99935.77;1789694;79;25611;-72
2022/05/29 09:18:36;;;;;;;9.18;3.15;;;;;;;18.40;60.34;99936.17;1793039;79;25707;-71
2022/05/29 09:21:17;;;;;;;7.05;2.25;;;;;;;18.54;57.62;99923.25;1783601;79;25710;-66
2022/05/29 09:24:09;;;;;;;5.97;2.25;;;;;;;18.80;59.26;99919.67;1792148;79;27719;-69
2022/05/29 09:26:38;;;;;;;4.50;2.20;;;;;;;19.13;55.09;99919.47;1708259;83;25742;-69
2022/05/29 09:29:07;;;;;;;8.75;2.22;;;;;;;19.38;51.61;99915.02;1761739;81;25639;-68
2022/05/29 09:31:34;;;;;;;5.17;2.07;;;;;;;19.39;54.15;99918.53;1734281;81;25707;-73
2022/05/29 09:34:01;;;;;;;5.85;1.70;;;;;;;19.46;52.78;99913.13;1760526;81;25646;-72
2022/05/29 09:36:54;;;;;;;5.25;2.30;;;;;;;19.57;51.85;99911.84;1761221;81;28154;-71
2022/05/29 09:39:35;;;;;;;6.60;2.12;;;;;;;19.46;50.39;99921.92;1716739;83;25739;-71
2022/05/29 09:42:33;;;;;;;6.95;2.70;;;;;;;19.31;50.34;99916.32;1751865;81;25777;-70
2022/05/29 09:45:15;;;;;;;6.53;2.55;;;;;;;19.10;50.83;99907.28;1760211;81;25670;-71
2022/05/29 09:50:55;;;;;;;9.63;2.22;;;;;;;18.80;53.23;99910.86;1752739;80;27449;-71
2022/05/29 09:53:44;;;;;;;5.25;2.10;;;;;;;19.05;52.85;99932.29;1757677;80;25681;-71
2022/05/29 09:56:11;;;;;;;4.97;2.08;;;;;;;19.04;51.44;99920.55;1741751;81;25810;-70
2022/05/29 09:58:49;;;;;;;4.72;2.02;;;;;;;18.99;52.02;99937.33;1749432;81;25709;-71
2022/05/29 10:01:36;;;;;;;5.37;2.05;;;;;;;19.17;52.03;99927.13;1763708;81;25650;-72
2022/05/29 10:04:08;;;;;;;7.72;2.40;;;;;;;19.27;50.63;99930.56;1822380;78;27425;-71
2022/05/29 10:06:44;;;;;;;5.25;2.45;;;;;;;19.13;48.57;99933.95;1818382;77;25794;-71
2022/05/29 10:09:23;;;;;;;6.87;2.33;;;;;;;18.88;49.48;99930.15;1767687;81;25769;-72
2022/05/29 10:11:59;;;;;;;3.58;2.22;;;;;;;18.72;49.94;99939.33;1762521;80;25740;-73
2022/05/29 10:14:41;;;;;;;8.45;2.52;;;;;;;18.46;50.73;99933.34;1753326;80;25740;-71
2022/05/29 10:17:31;;;;;;;6.05;2.55;;;;;;;18.54;51.15;99929.53;1766253;80;27452;-71
2022/05/29 10:19:57;;;;;;;6.08;2.27;;;;;;;18.52;49.95;99929.09;1732106;82;25733;-72
2022/05/29 10:22:35;;;;;;;4.87;2.25;;;;;;;18.42;51.01;99933.30;1794436;79;26436;-71
2022/05/29 10:25:24;;;;;;;5.00;2.10;;;;;;;18.37;51.17;99948.67;1811986;77;25699;-71
2022/05/29 10:27:57;;;;;;;4.55;2.37;;;;;;;18.26;50.72;99944.98;1792522;79;25725;-71
2022/05/29 10:30:48;;;;;;;4.15;2.02;;;;;;;18.01;50.72;99943.24;1795726;79;27625;-71
2022/05/29 10:33:22;;;;;;;6.70;2.20;;;;;;;17.89;50.87;99950.52;1782086;79;25721;-72
2022/05/29 10:35:52;;;;;;;7.55;2.30;;;;;;;17.76;50.97;99950.46;1740076;81;25752;-72
2022/05/29 10:38:24;;;;;;;5.55;2.52;;;;;;;17.66;51.17;99948.34;1747112;81;25687;-73
2022/05/29 10:40:59;;;;;;;6.15;2.40;;;;;;;17.57;51.57;99949.95;1742847;82;25944;-72
2022/05/29 10:43:45;;;;;;;4.78;2.05;;;;;;;17.39;51.41;99942.80;1764266;80;27625;-73
2022/05/29 10:46:16;;;;;;;9.33;2.52;;;;;;;17.26;52.09;99937.28;1742979;81;25730;-72
2022/05/29 10:48:54;;;;;;;4.70;2.30;;;;;;;17.27;52.67;99937.51;1766538;80;26009;-72
2022/05/29 10:51:37;;;;;;;5.80;2.17;;;;;;;17.29;52.54;99931.87;1756435;80;25692;-72
2022/05/29 10:54:40;;;;;;;9.45;2.30;;;;;;;17.36;53.24;99932.58;1730553;82;25686;-72
2022/05/29 10:57:47;;;;;;;8.05;2.27;;;;;;;17.52;53.04;99936.00;1761259;81;27583;-72
2022/05/29 11:00:55;;;;;;;10.38;2.70;;;;;;;17.61;52.16;99925.40;1737273;82;25425;-72
2022/05/29 11:04:06;;;;;;;4.23;2.17;;;;;;;17.84;52.55;99930.28;1751462;81;25788;-73
2022/05/29 11:07:08;;;;;;;6.92;2.90;;;;;;;18.09;52.19;99935.36;1736447;82;26166;-72
2022/05/29 11:09:58;;;;;;;7.15;2.40;;;;;;;18.00;50.60;99934.84;1756193;81;25684;-72
2022/05/29 11:13:02;;;;;;;6.42;2.10;;;;;;;17.86;51.72;99931.25;1766904;81;27417;-72
2022/05/29 11:15:43;;;;;;;5.97;2.58;;;;;;;18.48;52.53;99936.48;1769628;80;25642;-72
2022/05/29 11:18:35;;;;;;;5.35;2.27;;;;;;;18.79;49.50;99922.97;1770391;80;25704;-72
2022/05/29 11:21:54;;;;;;;4.28;1.60;;;;;;;18.87;49.55;99917.63;1774833;80;25804;-72
2022/05/29 11:24:40;;;;;;;6.33;1.77;;;;;;;18.97;47.19;99921.07;1766026;80;25768;-73
2022/05/29 11:27:46;;;;;;;5.72;2.00;;;;;;;19.06;47.14;99920.77;1732495;80;27484;-71
2022/05/29 11:30:21;;;;;;;7.17;2.08;;;;;;;18.90;47.39;99924.52;1752378;81;25707;-74
2022/05/29 11:33:34;;;;;;;6.25;2.27;;;;;;;18.93;48.10;99923.74;1681580;84;25820;-69
2022/05/29 11:36:37;;;;;;;6.20;2.25;;;;;;;19.31;49.14;99921.80;1620836;87;27317;-71
2022/05/29 11:39:32;;;;;;;5.42;2.10;;;;;;;19.88;48.35;99919.36;1670206;84;25577;-72
2022/05/29 11:42:31;;;;;;;5.53;2.02;;;;;;;19.87;49.10;99918.58;1690838;84;27459;-71
2022/05/29 11:45:22;;;;;;;4.30;1.95;;;;;;;20.42;50.26;99926.56;1677450;84;25456;-74
2022/05/29 11:51:08;;;;;;;3.47;1.40;;;;;;;21.48;46.94;99923.19;1698932;83;25726;-71
2022/05/29 11:53:40;;;;;;;3.95;1.40;;;;;;;21.69;44.05;99921.05;1620232;88;25836;-73
2022/05/29 11:56:44;;;;;;;1.70;1.10;;;;;;;21.74;43.34;99917.09;1613887;88;27558;-73
2022/05/29 11:59:24;;;;;;;3.08;1.20;;;;;;;22.14;43.47;99913.70;1613553;88;25830;-73
2022/05/29 12:01:59;;;;;;;4.92;1.55;;;;;;;22.56;42.41;99908.68;1617907;88;25784;-73
2022/05/29 12:04:37;;;;;;;3.42;1.22;;;;;;;22.80;39.72;99913.10;1619938;88;25800;-74
2022/05/29 12:07:08;;;;;;;3.35;1.20;;;;;;;22.82;40.41;99910.72;1638903;85;25716;-72
2022/05/29 12:09:42;;;;;;;6.15;1.47;;;;;;;22.81;39.18;99901.48;1674629;84;27693;-70
2022/05/29 12:12:19;;;;;;;3.20;1.30;;;;;;;22.72;40.37;99903.30;1646329;86;25946;-72
2022/05/29 12:14:59;;;;;;;14.90;5.25;;;;;;;22.76;39.85;99894.41;1654276;86;25751;-72
2022/05/29 12:17:44;;;;;;;6.10;2.52;;;;;;;22.68;40.12;99886.78;1682132;85;25756;-71
2022/05/29 12:20:17;;;;;;;5.25;3.20;;;;;;;22.99;39.58;99895.27;1645183;86;25673;-73
2022/05/29 12:22:52;;;;;;;4.05;2.37;;;;;;;23.04;39.31;99882.44;1716589;83;27534;-71
2022/05/29 12:25:33;;;;;;;12.20;2.12;;;;;;;23.22;40.11;99879.56;1731958;80;25911;-73
2022/05/29 12:28:08;;;;;;;6.35;1.62;;;;;;;23.66;38.53;99886.30;1821186;77;25648;-73
2022/05/29 12:30:42;;;;;;;5.35;2.25;;;;;;;23.55;38.62;99886.21;1740641;82;25639;-71
2022/05/29 12:33:18;;;;;;;3.42;1.80;;;;;;;23.20;38.91;99876.44;1740042;80;25334;-73
2022/05/29 12:35:56;;;;;;;4.05;1.82;;;;;;;23.18;39.14;99878.05;1775900;80;28107;-70
2022/05/29 12:38:34;;;;;;;4.25;2.22;;;;;;;23.23;38.72;99877.61;1773303;80;25778;-72
2022/05/29 12:41:45;;;;;;;6.97;1.87;;;;;;;22.78;38.63;99885.13;1775562;80;25423;-71
2022/05/29 12:45:01;;;;;;;2.87;1.50;;;;;;;22.33;38.61;99882.19;1775097;80;25724;-70